National Weather Service Raw Text Product

Displaying AFOS PIL: TAFMCW Received: 2018-05-17 11:30 UTC


551 
FTUS43 KDMX 171130
TAFMCW
TAF
KMCW 171130Z 1712/1812 VRB03KT P6SM FEW200
     FM171900 14006KT P6SM FEW200
     FM180400 12008KT P6SM SKC=